Wetterdaten: aktuell Sonntag, 06.09.2026 06:05
Datum Zeit Innen Temp. A. Schlaf Luftf.innen Feuchte A. Feuchte 2 Luftdruck Regen Wind
06.09.2026 06:05 24,6 °C 14,2 °C 23,6 °C 50 % 72 % 58 % 1023,3 hPa 0,0 mm 0,0 km/h
06.09.2026 05:05 24,7 °C 17,7 °C 23,6 °C 51 % 61 % 58 % 1022,8 hPa 0,0 mm 0,0 km/h
06.09.2026 04:05 24,8 °C 14,0 °C 23,6 °C 52 % 78 % 58 % 1023,4 hPa 0,0 mm 0,0 km/h
06.09.2026 03:05 24,9 °C 14,4 °C 23,6 °C 52 % 78 % 58 % 1022,3 hPa 0,0 mm 0,0 km/h
06.09.2026 02:05 24,9 °C 15,8 °C 23,6 °C 52 % 72 % 58 % 1022,1 hPa 0,0 mm 0,0 km/h
06.09.2026 01:05 25,0 °C 14,4 °C 23,6 °C 54 % 80 % 58 % 1022,3 hPa 0,0 mm 0,0 km/h
06.09.2026 00:05 25,1 °C 15,0 °C 23,5 °C 53 % 79 % 58 % 1022,2 hPa 0,0 mm 0,2 km/h
05.09.2026 23:05 25,3 °C 15,8 °C 23,5 °C 54 % 73 % 58 % 1021,0 hPa 0,0 mm 0,0 km/h
05.09.2026 22:05 25,4 °C 17,1 °C 23,5 °C 56 % 74 % 58 % 1020,8 hPa 0,0 mm 0,0 km/h
05.09.2026 21:05 25,5 °C 19,1 °C 23,4 °C 57 % 73 % 58 % 1019,5 hPa 0,0 mm 0,0 km/h
05.09.2026 20:05 25,6 °C 20,7 °C 23,4 °C 57 % 68 % 58 % 1018,2 hPa 0,0 mm 0,0 km/h
05.09.2026 19:05 25,7 °C 23,2 °C 23,3 °C 56 % 61 % 58 % 1016,9 hPa 0,0 mm 2,5 km/h
05.09.2026 18:05 26,0 °C 24,4 °C 23,3 °C 55 % 58 % 58 % 1016,7 hPa 0,0 mm 3,6 km/h
05.09.2026 17:05 25,8 °C 24,6 °C 23,2 °C 54 % 55 % 58 % 1016,7 hPa 0,0 mm 6,9 km/h
05.09.2026 16:05 25,6 °C 25,5 °C 23,2 °C 53 % 50 % 58 % 1016,5 hPa 0,0 mm 4,1 km/h
05.09.2026 15:05 25,2 °C 23,4 °C 23,2 °C 52 % 54 % 57 % 1016,8 hPa 0,0 mm 4,4 km/h
05.09.2026 14:05 25,3 °C 23,6 °C 23,0 °C 51 % 51 % 57 % 1016,8 hPa 0,0 mm 7,5 km/h
05.09.2026 13:05 25,4 °C 27,6 °C 23,0 °C 51 % 42 % 57 % 1016,3 hPa 0,0 mm 0,8 km/h
05.09.2026 12:05 25,0 °C 25,4 °C 23,0 °C 50 % 45 % 57 % 1016,6 hPa 0,0 mm 1,1 km/h
05.09.2026 11:05 24,0 °C 23,8 °C 22,6 °C 52 % 49 % 57 % 1016,8 hPa 0,0 mm 3,6 km/h
05.09.2026 10:05 22,8 °C 21,0 °C 22,2 °C 52 % 54 % 58 % 1016,1 hPa 0,0 mm 9,4 km/h
05.09.2026 09:05 24,3 °C 21,5 °C 22,4 °C 56 % 55 % 60 % 1015,0 hPa 0,0 mm 10,2 km/h
05.09.2026 08:05 24,4 °C 22,3 °C 22,0 °C 59 % 63 % 63 % 1013,9 hPa 0,0 mm 5,2 km/h
05.09.2026 07:05 24,3 °C 17,3 °C 21,6 °C 58 % 77 % 62 % 1013,5 hPa 0,0 mm 0,0 km/h
05.09.2026 07:00 24,2 °C 17,3 °C 21,6 °C 58 % 77 % 62 % 1013,5 hPa 0,0 mm 0,0 km/h
_ Min-Zeit 10:25 05:30 07:00 12:00 12:35 10:15 07:35 - 07:00
Minimum _ 22,6 °C 13,5 °C 21,6 °C 49 % 40 % 57 % 1013,3 hPa - 0,0 km/h
_ Max-Zeit 17:45 12:35 00:35 08:00 00:35 07:20 05:30 07:00 08:45
Maximum _ 26,0 °C 28,4 °C 23,6 °C 59 % 80 % 63 % 1023,4 hPa 0,0 mm 27,7 km/h
N
Durchschnitt _ 24,9 °C 20,0 °C 23,0 °C 54 % 64 % 58 % 1018,3 hPa #0,0 mm 2,2 km/h